Time;durP1;ratioP1;P1;durP2;ratioP2;P2;SDS_P1;SDS_P2;PMS_P1;PMS_P2;Temp;Humidity;BMP_temperature;BMP_pressure;BME280_temperature;BME280_humidity;BME280_pressure;Samples;Min_cycle;Max_cycle;Signal;HPM_P1;HPM_P2
2022/10/24 00:00:57;;;;;;;;;;;16.10;99.90;;;;;;5034476;28;19927;-69
2022/10/24 00:03:23;;;;;;;;;;;16.10;99.90;;;;;;5034312;28;19909;-70
2022/10/24 00:05:48;;;;;;;;;;;15.90;99.90;;;;;;5033069;28;19905;-69
2022/10/24 00:08:14;;;;;;;;;;;15.90;99.90;;;;;;5033142;28;20313;-70
2022/10/24 00:10:42;;;;;;;;;;;15.80;99.90;;;;;;5032800;28;19905;-70
2022/10/24 00:13:08;;;;;;;;;;;15.80;99.90;;;;;;5033020;28;19905;-69
2022/10/24 00:15:33;;;;;;;;;;;15.80;99.90;;;;;;5049355;28;19912;-69
2022/10/24 00:17:59;;;;;;;;;;;15.80;99.90;;;;;;5032710;28;20038;-69
2022/10/24 00:20:24;;;;;;;;;;;15.90;99.90;;;;;;5033724;28;19917;-68
2022/10/24 00:22:50;;;;;;;;;;;16.00;99.90;;;;;;5033907;28;19909;-69
2022/10/24 00:25:15;;;;;;;;;;;16.20;99.90;;;;;;5033612;28;19936;-69
2022/10/24 00:27:41;;;;;;;;;;;16.20;99.90;;;;;;5034045;28;19905;-69
2022/10/24 00:30:06;;;;;;;;;;;16.10;99.90;;;;;;5033987;28;19905;-68
2022/10/24 00:32:32;;;;;;;;;;;16.20;99.90;;;;;;5034101;28;20423;-68
2022/10/24 00:34:57;;;;;;;;;;;16.20;99.90;;;;;;5034277;28;19909;-69
2022/10/24 00:37:23;;;;;;;;;;;16.30;99.90;;;;;;5032864;28;19955;-69
2022/10/24 00:39:48;;;;;;;;;;;16.30;99.90;;;;;;5030256;28;19905;-68
2022/10/24 00:42:14;;;;;;;;;;;16.30;99.90;;;;;;5012739;28;19909;-68
2022/10/24 00:44:40;;;;;;;;;;;16.20;99.90;;;;;;5014146;28;19905;-68
2022/10/24 00:47:09;;;;;;;;;;;16.20;99.90;;;;;;5014246;28;19912;-68
2022/10/24 00:49:43;;;;;;;;;;;16.00;99.90;;;;;;5014188;28;19940;-68
2022/10/24 00:52:09;;;;;;;;;;;15.90;99.90;;;;;;5013956;28;19913;-68
2022/10/24 00:54:37;;;;;;;;;;;15.70;99.90;;;;;;5013808;28;19905;-68
2022/10/24 00:57:10;;;;;;;;;;;15.80;99.90;;;;;;5013627;28;19906;-69
2022/10/24 00:59:37;;;;;;;;;;;15.80;99.90;;;;;;5048862;23;20413;-73
2022/10/24 01:02:02;;;;;;;;;;;15.80;99.90;;;;;;5034205;28;19909;-75
2022/10/24 01:04:28;;;;;;;;;;;15.70;99.90;;;;;;5036831;28;19912;-74
2022/10/24 01:06:56;;;;;;;;;;;15.60;99.90;;;;;;5034802;28;19959;-74
2022/10/24 01:09:22;;;;;;;;;;;15.50;99.90;;;;;;5034319;28;19905;-74
2022/10/24 01:11:50;;;;;;;;;;;15.60;99.90;;;;;;5032880;28;20452;-73
2022/10/24 01:14:15;;;;;;;;;;;15.70;99.90;;;;;;5015045;28;20500;-74
2022/10/24 01:16:53;;;;;;;;;;;15.70;99.90;;;;;;5014537;28;19906;-74
2022/10/24 01:19:28;;;;;;;;;;;15.80;99.90;;;;;;5013094;28;19906;-74
2022/10/24 01:22:15;;;;;;;;;;;16.00;99.90;;;;;;5013893;28;19909;-74
2022/10/24 01:24:44;;;;;;;;;;;16.10;99.90;;;;;;5014007;28;20341;-74
2022/10/24 01:27:18;;;;;;;;;;;16.00;99.90;;;;;;5014198;28;19905;-74
2022/10/24 01:29:49;;;;;;;;;;;15.90;99.90;;;;;;5017701;28;19905;-73
2022/10/24 01:32:21;;;;;;;;;;;15.70;99.90;;;;;;5035424;28;19905;-74
2022/10/24 01:35:05;;;;;;;;;;;15.70;99.90;;;;;;5036368;28;19970;-73
2022/10/24 01:37:35;;;;;;;;;;;15.60;99.90;;;;;;5035746;28;19912;-74
2022/10/24 01:40:05;;;;;;;;;;;15.70;99.90;;;;;;5037116;28;19905;-74
2022/10/24 01:42:31;;;;;;;;;;;15.70;99.90;;;;;;5035795;28;19909;-74
2022/10/24 01:44:59;;;;;;;;;;;15.80;99.90;;;;;;5039148;28;19909;-75
2022/10/24 01:47:26;;;;;;;;;;;15.60;99.90;;;;;;5042472;28;19909;-74
2022/10/24 01:50:00;;;;;;;;;;;15.60;99.90;;;;;;5063993;28;19905;-74
2022/10/24 01:52:28;;;;;;;;;;;15.60;99.90;;;;;;5046206;28;19908;-74
2022/10/24 01:54:54;;;;;;;;;;;15.60;99.90;;;;;;5039740;28;19920;-74
2022/10/24 01:57:19;;;;;;;;;;;15.60;99.90;;;;;;5041035;28;19995;-74
2022/10/24 01:59:46;;;;;;;;;;;15.70;99.90;;;;;;5039334;28;19913;-74
2022/10/24 02:02:25;;;;;;;;;;;15.70;99.90;;;;;;5040816;28;19945;-74
2022/10/24 02:04:54;;;;;;;;;;;15.60;99.90;;;;;;5044152;28;19905;-74
2022/10/24 02:07:20;;;;;;;;;;;15.50;99.90;;;;;;5046011;28;19912;-74
2022/10/24 02:09:48;;;;;;;;;;;15.40;99.90;;;;;;5044974;28;19961;-75
2022/10/24 02:12:15;;;;;;;;;;;15.50;99.90;;;;;;5045410;28;19927;-74
2022/10/24 02:15:01;;;;;;;;;;;15.50;99.90;;;;;;5039085;28;19905;-74
2022/10/24 02:17:27;;;;;;;;;;;15.60;99.90;;;;;;5042751;28;19905;-75
2022/10/24 02:19:53;;;;;;;;;;;15.70;99.90;;;;;;5040402;28;19996;-74
2022/10/24 02:22:27;;;;;;;;;;;15.70;99.90;;;;;;5059472;28;19909;-74
2022/10/24 02:24:54;;;;;;;;;;;15.80;99.90;;;;;;5042245;28;19909;-75
2022/10/24 02:27:22;;;;;;;;;;;15.70;99.90;;;;;;5056675;28;19928;-74
2022/10/24 02:29:59;;;;;;;;;;;15.70;99.90;;;;;;5039373;28;19905;-71
2022/10/24 02:32:27;;;;;;;;;;;15.60;99.90;;;;;;5036969;28;20344;-74
2022/10/24 02:34:52;;;;;;;;;;;15.70;99.90;;;;;;5043662;28;20007;-74
2022/10/24 02:37:18;;;;;;;;;;;15.60;99.90;;;;;;5043651;28;20380;-75
2022/10/24 02:39:46;;;;;;;;;;;15.70;99.90;;;;;;5038830;28;19992;-74
2022/10/24 02:42:12;;;;;;;;;;;15.70;99.90;;;;;;5039795;28;19916;-74
2022/10/24 02:44:38;;;;;;;;;;;15.60;99.90;;;;;;5058544;28;19905;-74
2022/10/24 02:47:05;;;;;;;;;;;15.50;99.90;;;;;;5041444;28;19912;-74
2022/10/24 02:49:31;;;;;;;;;;;15.70;99.90;;;;;;5055668;28;19996;-74
2022/10/24 02:51:56;;;;;;;;;;;15.70;99.90;;;;;;5038454;28;19951;-74
2022/10/24 02:54:22;;;;;;;;;;;15.70;99.90;;;;;;5042891;28;19944;-73
2022/10/24 02:56:50;;;;;;;;;;;15.70;99.90;;;;;;5046220;28;19912;-74
2022/10/24 02:59:16;;;;;;;;;;;15.70;99.90;;;;;;5061814;28;19923;-75
2022/10/24 03:01:41;;;;;;;;;;;15.70;99.90;;;;;;5061660;28;19908;-74
2022/10/24 03:04:07;;;;;;;;;;;15.70;99.90;;;;;;5044635;28;20007;-74
2022/10/24 03:06:32;;;;;;;;;;;15.70;99.90;;;;;;5061738;28;19905;-74
2022/10/24 03:08:58;;;;;;;;;;;15.70;99.90;;;;;;5045535;28;19909;-74
2022/10/24 03:11:23;;;;;;;;;;;15.80;99.90;;;;;;5045302;28;19952;-74
2022/10/24 03:13:49;;;;;;;;;;;15.80;99.90;;;;;;5045423;28;19905;-74
2022/10/24 03:16:14;;;;;;;;;;;15.70;99.90;;;;;;5043995;28;19905;-74
2022/10/24 03:18:40;;;;;;;;;;;15.90;99.90;;;;;;5045029;28;19904;-73
2022/10/24 03:21:05;;;;;;;;;;;15.80;99.90;;;;;;5046009;28;19977;-75
2022/10/24 03:23:31;;;;;;;;;;;15.70;99.90;;;;;;5044013;28;19920;-75
2022/10/24 03:25:56;;;;;;;;;;;15.60;99.90;;;;;;5045449;28;19912;-74
2022/10/24 03:28:22;;;;;;;;;;;15.60;99.90;;;;;;5061403;28;19928;-74
2022/10/24 03:30:48;;;;;;;;;;;15.60;99.90;;;;;;5060797;28;19909;-74
2022/10/24 03:33:13;;;;;;;;;;;15.70;99.90;;;;;;5046678;28;19912;-74
2022/10/24 03:35:39;;;;;;;;;;;15.60;99.90;;;;;;5045906;28;19904;-74
2022/10/24 03:38:07;;;;;;;;;;;15.70;99.90;;;;;;5044284;28;19905;-74
2022/10/24 03:40:35;;;;;;;;;;;15.70;99.90;;;;;;5041445;28;20007;-74
2022/10/24 03:43:01;;;;;;;;;;;15.70;99.90;;;;;;5036573;28;20022;-75
2022/10/24 03:45:26;;;;;;;;;;;15.80;99.90;;;;;;5037348;28;19966;-73
2022/10/24 03:47:52;;;;;;;;;;;15.70;99.90;;;;;;5055389;28;19912;-75
2022/10/24 03:50:17;;;;;;;;;;;15.70;99.90;;;;;;5045812;28;19909;-74
2022/10/24 03:52:43;;;;;;;;;;;15.70;99.90;;;;;;5043838;28;19905;-74
2022/10/24 03:55:09;;;;;;;;;;;15.70;99.90;;;;;;5037389;28;20011;-74
2022/10/24 03:57:34;;;;;;;;;;;15.80;99.90;;;;;;5034661;28;19909;-75
2022/10/24 04:00:00;;;;;;;;;;;15.70;99.90;;;;;;5050976;28;19952;-75
2022/10/24 04:02:25;;;;;;;;;;;15.60;99.90;;;;;;5040629;28;19913;-74
2022/10/24 04:04:51;;;;;;;;;;;15.50;99.90;;;;;;5035643;28;19912;-75
2022/10/24 04:07:16;;;;;;;;;;;15.50;99.90;;;;;;5034310;28;19986;-74
2022/10/24 04:09:42;;;;;;;;;;;15.50;99.90;;;;;;5035780;28;19906;-73
2022/10/24 04:12:07;;;;;;;;;;;15.50;99.90;;;;;;5033490;28;19912;-73
2022/10/24 04:14:33;;;;;;;;;;;15.60;99.90;;;;;;5018152;28;19905;-73
2022/10/24 04:16:58;;;;;;;;;;;15.60;99.90;;;;;;5014085;28;19910;-74
2022/10/24 04:19:24;;;;;;;;;;;15.50;99.90;;;;;;5013766;28;19959;-75
2022/10/24 04:21:49;;;;;;;;;;;15.50;99.90;;;;;;5017644;28;19916;-75
2022/10/24 04:24:15;;;;;;;;;;;15.40;99.90;;;;;;5034065;28;20373;-75
2022/10/24 04:26:40;;;;;;;;;;;15.50;99.90;;;;;;5014243;28;19944;-74
2022/10/24 04:29:06;;;;;;;;;;;15.50;99.90;;;;;;5014740;28;19916;-73
2022/10/24 04:31:31;;;;;;;;;;;15.50;99.90;;;;;;5004066;28;20267;-73
2022/10/24 04:33:57;;;;;;;;;;;15.50;99.90;;;;;;5010599;28;19906;-73
2022/10/24 04:36:22;;;;;;;;;;;15.60;99.90;;;;;;5010580;28;19948;-74
2022/10/24 04:38:48;;;;;;;;;;;15.80;99.90;;;;;;5010260;28;19912;-73
2022/10/24 04:41:13;;;;;;;;;;;15.90;99.90;;;;;;5015578;28;19917;-74
2022/10/24 04:43:39;;;;;;;;;;;15.90;99.90;;;;;;5006061;28;19905;-74
2022/10/24 04:46:05;;;;;;;;;;;15.90;99.90;;;;;;5020659;28;19910;-73
2022/10/24 04:48:30;;;;;;;;;;;16.00;99.90;;;;;;5012208;28;19909;-73
2022/10/24 04:50:56;;;;;;;;;;;16.00;99.90;;;;;;5015849;28;20332;-73
2022/10/24 04:53:21;;;;;;;;;;;16.00;99.90;;;;;;5015850;28;19953;-73
2022/10/24 04:55:47;;;;;;;;;;;16.10;99.90;;;;;;5012083;28;19913;-72
2022/10/24 04:58:12;;;;;;;;;;;16.10;99.90;;;;;;5013371;28;19948;-73
2022/10/24 05:00:38;;;;;;;;;;;16.00;99.90;;;;;;5014250;28;19901;-73
2022/10/24 05:03:03;;;;;;;;;;;15.90;99.90;;;;;;5013247;28;19914;-74
2022/10/24 05:05:29;;;;;;;;;;;16.00;99.90;;;;;;5013401;28;19951;-74
2022/10/24 05:07:54;;;;;;;;;;;16.10;99.90;;;;;;5013072;28;20282;-74
2022/10/24 05:10:20;;;;;;;;;;;16.20;99.90;;;;;;5012878;28;20274;-75
2022/10/24 05:12:45;;;;;;;;;;;16.10;99.90;;;;;;5013244;28;20020;-74
2022/10/24 05:15:13;;;;;;;;;;;16.20;99.90;;;;;;5014295;28;19913;-74
2022/10/24 05:17:38;;;;;;;;;;;16.40;99.90;;;;;;5012765;28;19920;-73
2022/10/24 05:20:04;;;;;;;;;;;16.40;99.90;;;;;;5014896;28;19905;-73
2022/10/24 05:22:29;;;;;;;;;;;16.30;99.90;;;;;;5017648;28;19965;-73
2022/10/24 05:24:55;;;;;;;;;;;16.30;99.90;;;;;;5021089;28;20263;-74
2022/10/24 05:27:23;;;;;;;;;;;16.30;99.90;;;;;;5040884;28;19956;-73
2022/10/24 05:29:49;;;;;;;;;;;16.20;99.90;;;;;;5041261;28;19906;-73
2022/10/24 05:32:15;;;;;;;;;;;16.10;99.90;;;;;;5025709;28;19905;-74
2022/10/24 05:34:40;;;;;;;;;;;16.10;99.90;;;;;;5024496;28;19905;-74
2022/10/24 05:37:05;;;;;;;;;;;16.20;99.90;;;;;;5025385;28;19960;-73
2022/10/24 05:39:31;;;;;;;;;;;16.20;99.90;;;;;;5022088;28;19906;-74
2022/10/24 05:41:56;;;;;;;;;;;16.20;99.90;;;;;;5039837;28;20395;-74
2022/10/24 05:44:22;;;;;;;;;;;16.20;99.90;;;;;;5038930;28;19909;-74
2022/10/24 05:46:47;;;;;;;;;;;16.30;99.90;;;;;;5039404;28;19952;-74
2022/10/24 05:49:13;;;;;;;;;;;16.40;99.90;;;;;;5055192;28;20372;-74
2022/10/24 05:51:39;;;;;;;;;;;16.40;99.90;;;;;;5054885;28;19916;-74
2022/10/24 05:54:04;;;;;;;;;;;16.40;99.90;;;;;;5037825;28;19912;-75
2022/10/24 05:56:30;;;;;;;;;;;16.30;99.90;;;;;;5036313;28;20420;-72
2022/10/24 05:58:56;;;;;;;;;;;16.20;99.90;;;;;;5037141;28;19913;-75
2022/10/24 06:01:21;;;;;;;;;;;16.10;99.90;;;;;;5035847;28;20003;-74
2022/10/24 06:03:46;;;;;;;;;;;16.30;99.90;;;;;;5036160;28;19951;-74
2022/10/24 06:06:12;;;;;;;;;;;16.20;99.90;;;;;;5036026;28;20374;-74
2022/10/24 06:08:37;;;;;;;;;;;16.40;99.90;;;;;;5037120;28;20007;-74
2022/10/24 06:11:03;;;;;;;;;;;16.30;99.90;;;;;;5052426;28;19909;-74
2022/10/24 06:13:29;;;;;;;;;;;16.30;99.90;;;;;;5052085;28;20358;-74
2022/10/24 06:15:54;;;;;;;;;;;16.30;99.90;;;;;;5052387;28;19905;-73
2022/10/24 06:18:20;;;;;;;;;;;16.50;99.90;;;;;;5036776;28;19905;-75
2022/10/24 06:20:45;;;;;;;;;;;16.50;99.90;;;;;;5036860;28;20394;-74
2022/10/24 06:23:11;;;;;;;;;;;16.50;99.90;;;;;;5036172;28;19909;-74
2022/10/24 06:25:39;;;;;;;;;;;16.60;99.90;;;;;;5036924;28;20008;-74
2022/10/24 06:28:06;;;;;;;;;;;16.70;99.90;;;;;;5052390;28;19905;-73
2022/10/24 06:30:32;;;;;;;;;;;16.70;99.90;;;;;;5037281;28;19992;-71
2022/10/24 06:32:57;;;;;;;;;;;16.70;99.90;;;;;;5038657;28;20353;-74
2022/10/24 06:35:23;;;;;;;;;;;16.70;99.90;;;;;;5039064;28;19905;-74
2022/10/24 06:37:48;;;;;;;;;;;16.60;99.90;;;;;;5038467;28;20003;-74
2022/10/24 06:40:14;;;;;;;;;;;16.70;99.90;;;;;;5037730;28;19952;-74
2022/10/24 06:42:40;;;;;;;;;;;16.80;99.90;;;;;;5036480;28;19992;-74
2022/10/24 06:45:10;;;;;;;;;;;16.80;99.90;;;;;;5037535;28;19909;-79
2022/10/24 06:47:35;;;;;;;;;;;16.80;99.90;;;;;;5037195;28;19948;-74
2022/10/24 06:50:01;;;;;;;;;;;16.90;99.90;;;;;;5037208;28;19912;-75
2022/10/24 06:52:26;;;;;;;;;;;17.00;99.90;;;;;;5036603;28;19909;-74
2022/10/24 06:54:52;;;;;;;;;;;17.10;99.90;;;;;;5035518;28;20390;-75
2022/10/24 06:57:17;;;;;;;;;;;17.00;99.90;;;;;;5036632;28;19905;-74
2022/10/24 06:59:43;;;;;;;;;;;17.00;99.90;;;;;;5055547;23;20024;-69
2022/10/24 07:02:13;;;;;;;;;;;17.00;99.90;;;;;;5035913;28;19921;-68
2022/10/24 07:04:39;;;;;;;;;;;17.00;99.90;;;;;;5034524;28;19949;-67
2022/10/24 07:07:04;;;;;;;;;;;17.00;99.90;;;;;;5035571;28;19912;-68
2022/10/24 07:09:30;;;;;;;;;;;17.00;99.90;;;;;;5035444;28;19962;-67
2022/10/24 07:11:55;;;;;;;;;;;17.00;99.90;;;;;;5033479;28;19911;-67
2022/10/24 07:14:21;;;;;;;;;;;16.90;99.90;;;;;;5034969;28;19925;-66
2022/10/24 07:16:46;;;;;;;;;;;16.90;99.90;;;;;;5033480;28;20277;-66
2022/10/24 07:19:12;;;;;;;;;;;16.70;99.90;;;;;;5033909;28;19912;-67
2022/10/24 07:21:38;;;;;;;;;;;16.80;99.90;;;;;;5034907;28;19916;-67
2022/10/24 07:24:03;;;;;;;;;;;16.80;99.90;;;;;;5034955;28;19927;-67
2022/10/24 07:26:29;;;;;;;;;;;16.90;99.90;;;;;;5034809;28;19913;-67
2022/10/24 07:28:57;;;;;;;;;;;16.90;99.90;;;;;;5034622;28;19995;-67
2022/10/24 07:31:24;;;;;;;;;;;17.00;99.90;;;;;;5017861;28;19905;-67
2022/10/24 07:33:50;;;;;;;;;;;17.00;99.90;;;;;;5015114;28;19905;-67
2022/10/24 07:36:22;;;;;;;;;;;17.00;99.90;;;;;;5015401;28;20452;-67
2022/10/24 07:38:49;;;;;;;;;;;17.00;99.90;;;;;;5015344;28;20262;-67
2022/10/24 07:41:14;;;;;;;;;;;17.00;99.90;;;;;;5015376;28;19912;-67
2022/10/24 07:43:40;;;;;;;;;;;17.00;99.90;;;;;;5015028;28;19999;-67
2022/10/24 07:46:07;;;;;;;;;;;17.10;99.90;;;;;;5013683;28;19906;-67
2022/10/24 07:48:33;;;;;;;;;;;17.00;99.90;;;;;;5014731;28;19905;-67
2022/10/24 07:50:58;;;;;;;;;;;17.10;99.90;;;;;;5014832;28;19905;-67
2022/10/24 07:53:26;;;;;;;;;;;17.20;99.90;;;;;;5013232;28;19912;-67
2022/10/24 07:55:53;;;;;;;;;;;17.10;99.90;;;;;;5013213;28;19905;-67
2022/10/24 07:58:19;;;;;;;;;;;17.20;99.90;;;;;;5014483;28;19966;-67
2022/10/24 08:00:46;;;;;;;;;;;17.20;99.90;;;;;;5024139;28;20405;-66
2022/10/24 08:03:12;;;;;;;;;;;17.40;99.90;;;;;;5033179;28;19994;-66
2022/10/24 08:05:41;;;;;;;;;;;17.50;99.90;;;;;;5035815;28;19905;-68
2022/10/24 08:08:07;;;;;;;;;;;17.40;99.90;;;;;;5035722;28;19912;-66
2022/10/24 08:10:32;;;;;;;;;;;17.40;99.90;;;;;;5036082;28;19905;-66
2022/10/24 08:12:58;;;;;;;;;;;17.50;99.90;;;;;;5037468;28;19927;-66
2022/10/24 08:15:26;;;;;;;;;;;17.70;99.90;;;;;;5034893;28;19905;-67
2022/10/24 08:17:55;;;;;;;;;;;17.80;99.90;;;;;;5034496;28;19996;-67
2022/10/24 08:20:22;;;;;;;;;;;17.90;99.90;;;;;;5034045;28;19953;-67
2022/10/24 08:22:48;;;;;;;;;;;18.00;99.90;;;;;;5032688;28;19909;-66
2022/10/24 08:25:14;;;;;;;;;;;18.10;99.90;;;;;;5032776;28;19905;-66
2022/10/24 08:27:40;;;;;;;;;;;18.10;99.90;;;;;;5032340;28;19907;-66
2022/10/24 08:30:06;;;;;;;;;;;18.00;99.90;;;;;;5027547;28;19905;-66
2022/10/24 08:32:32;;;;;;;;;;;17.90;99.90;;;;;;5012449;28;19906;-67
2022/10/24 08:34:57;;;;;;;;;;;17.80;99.90;;;;;;5013907;28;19906;-67
2022/10/24 08:37:23;;;;;;;;;;;17.70;99.90;;;;;;5013843;28;19906;-68
2022/10/24 08:39:48;;;;;;;;;;;17.80;99.90;;;;;;5012466;28;19906;-67
2022/10/24 08:42:15;;;;;;;;;;;17.70;99.90;;;;;;5014384;28;19945;-67
2022/10/24 08:44:44;;;;;;;;;;;17.70;99.90;;;;;;5015046;28;19910;-68
2022/10/24 08:47:19;;;;;;;;;;;17.60;99.90;;;;;;5013898;28;20000;-66
2022/10/24 08:49:48;;;;;;;;;;;17.60;99.90;;;;;;5014074;28;19952;-68
2022/10/24 08:52:31;;;;;;;;;;;17.60;99.90;;;;;;5014038;28;19906;-68
2022/10/24 08:54:58;;;;;;;;;;;17.80;99.90;;;;;;5014181;28;19912;-68
2022/10/24 08:57:26;;;;;;;;;;;17.70;99.90;;;;;;5016442;28;20218;-68
2022/10/24 08:59:53;;;;;;;;;;;17.90;99.90;;;;;;5021950;28;20353;-69
2022/10/24 09:02:21;;;;;;;;;;;18.00;99.90;;;;;;5038119;28;20320;-68
2022/10/24 09:05:07;;;;;;;;;;;18.10;99.90;;;;;;5038352;28;19955;-69
2022/10/24 09:07:32;;;;;;;;;;;18.00;99.90;;;;;;5035855;28;19909;-68
2022/10/24 09:10:17;;;;;;;;;;;17.90;99.90;;;;;;5037628;28;20007;-69
2022/10/24 09:12:42;;;;;;;;;;;18.00;99.90;;;;;;5036656;28;19905;-69
2022/10/24 09:15:15;;;;;;;;;;;18.10;99.90;;;;;;5037721;28;19935;-68
2022/10/24 09:17:41;;;;;;;;;;;18.20;99.90;;;;;;5037669;28;20442;-69
2022/10/24 09:20:12;;;;;;;;;;;18.30;99.90;;;;;;5036501;28;20014;-69
2022/10/24 09:22:38;;;;;;;;;;;18.20;99.90;;;;;;5038294;28;20262;-69
2022/10/24 09:25:05;;;;;;;;;;;18.30;99.90;;;;;;5036266;28;19905;-69
2022/10/24 09:27:32;;;;;;;;;;;18.30;99.90;;;;;;5037242;28;19963;-69
2022/10/24 09:29:58;;;;;;;;;;;18.20;99.90;;;;;;5031991;28;20370;-70
2022/10/24 09:32:26;;;;;;;;;;;18.30;99.90;;;;;;5017739;28;19906;-69
2022/10/24 09:34:51;;;;;;;;;;;18.30;99.90;;;;;;5017623;28;20005;-68
2022/10/24 09:37:29;;;;;;;;;;;18.40;99.90;;;;;;5022628;28;20004;-69
2022/10/24 09:40:05;;;;;;;;;;;18.40;99.90;;;;;;5035940;28;19909;-68
2022/10/24 09:42:31;;;;;;;;;;;18.50;99.90;;;;;;5032584;28;20334;-69
2022/10/24 09:44:57;;;;;;;;;;;18.50;99.90;;;;;;5015566;28;19941;-69
2022/10/24 09:47:24;;;;;;;;;;;18.60;99.90;;;;;;5017403;28;19905;-69
2022/10/24 09:49:50;;;;;;;;;;;18.70;99.90;;;;;;5017226;28;19910;-69
2022/10/24 09:52:18;;;;;;;;;;;18.60;99.90;;;;;;5017741;28;19996;-69
2022/10/24 09:54:45;;;;;;;;;;;19.00;99.90;;;;;;5032439;28;19912;-70
2022/10/24 09:57:10;;;;;;;;;;;19.20;99.90;;;;;;5015823;28;19909;-69
2022/10/24 10:00:08;;;;;;;;;;;19.40;99.90;;;;;;5018763;28;19921;-69
2022/10/24 10:02:33;;;;;;;;;;;19.50;99.90;;;;;;4975747;28;19921;-69
2022/10/24 10:05:02;;;;;;;;;;;19.50;99.90;;;;;;4976030;28;19906;-69
2022/10/24 10:07:29;;;;;;;;;;;19.50;99.90;;;;;;4975582;28;20005;-69
2022/10/24 10:09:59;;;;;;;;;;;19.40;99.90;;;;;;4974589;28;20037;-69
2022/10/24 10:12:35;;;;;;;;;;;19.30;99.90;;;;;;4975708;28;20423;-69
2022/10/24 10:15:02;;;;;;;;;;;19.40;99.90;;;;;;4975739;28;19910;-69
2022/10/24 10:17:30;;;;;;;;;;;19.30;99.90;;;;;;4976101;28;19909;-69
2022/10/24 10:19:55;;;;;;;;;;;19.20;99.90;;;;;;4976581;28;19906;-69
2022/10/24 10:22:28;;;;;;;;;;;19.20;99.90;;;;;;4976162;28;20438;-69
2022/10/24 10:24:55;;;;;;;;;;;19.20;99.90;;;;;;4959278;28;19938;-70
2022/10/24 10:27:31;;;;;;;;;;;19.40;99.90;;;;;;4975515;28;19925;-69
2022/10/24 10:30:15;;;;;;;;;;;19.50;99.90;;;;;;4971548;28;19906;-69
2022/10/24 10:32:59;;;;;;;;;;;19.40;99.90;;;;;;4957707;29;19941;-69
2022/10/24 10:35:24;;;;;;;;;;;19.30;99.90;;;;;;4958747;29;19914;-69
2022/10/24 10:38:01;;;;;;;;;;;19.10;99.90;;;;;;4980763;28;19925;-69
2022/10/24 10:40:36;;;;;;;;;;;19.10;99.90;;;;;;5018750;28;19929;-69
2022/10/24 10:43:01;;;;;;;;;;;19.70;99.90;;;;;;5019533;28;19916;-68
2022/10/24 10:45:46;;;;;;;;;;;20.40;99.90;;;;;;5016348;28;19913;-69
2022/10/24 10:48:34;;;;;;;;;;;20.80;99.90;;;;;;5015847;28;20388;-69
2022/10/24 10:51:19;;;;;;;;;;;21.10;99.90;;;;;;5014637;28;19906;-68
2022/10/24 10:54:06;;;;;;;;;;;21.20;99.90;;;;;;5031404;28;19905;-68
2022/10/24 10:56:37;;;;;;;;;;;21.20;99.90;;;;;;5031118;28;19905;-68
2022/10/24 10:59:07;;;;;;;;;;;21.20;99.90;;;;;;5014340;28;19909;-68
2022/10/24 11:01:41;;;;;;;;;;;21.20;99.90;;;;;;5033690;28;20433;-69
2022/10/24 11:04:13;;;;;;;;;;;21.10;99.90;;;;;;5035691;28;19905;-69
2022/10/24 11:06:53;;;;;;;;;;;21.00;99.90;;;;;;5035894;28;19912;-69
2022/10/24 11:09:19;;;;;;;;;;;20.90;99.90;;;;;;5035230;28;19905;-68
2022/10/24 11:11:50;;;;;;;;;;;20.70;99.90;;;;;;5035490;28;20048;-69
2022/10/24 11:14:29;;;;;;;;;;;20.60;99.90;;;;;;5034098;28;19905;-68
2022/10/24 11:16:57;;;;;;;;;;;20.50;99.90;;;;;;5035044;28;19912;-68
2022/10/24 11:19:28;;;;;;;;;;;20.40;99.90;;;;;;5034950;28;19999;-68
2022/10/24 11:21:59;;;;;;;;;;;20.30;99.90;;;;;;5035350;28;19909;-68
2022/10/24 11:24:25;;;;;;;;;;;20.30;99.90;;;;;;5034189;28;20281;-68
2022/10/24 11:27:08;;;;;;;;;;;20.40;99.90;;;;;;5035233;28;19909;-68
2022/10/24 11:29:39;;;;;;;;;;;20.40;99.90;;;;;;5032222;28;19912;-68
2022/10/24 11:32:33;;;;;;;;;;;20.50;99.90;;;;;;5014330;28;19955;-70
2022/10/24 11:35:14;;;;;;;;;;;20.40;99.90;;;;;;5010446;28;19996;-68
2022/10/24 11:37:41;;;;;;;;;;;20.40;99.90;;;;;;5015469;28;19925;-68
2022/10/24 11:40:10;;;;;;;;;;;20.20;99.90;;;;;;5015281;28;19952;-68
2022/10/24 11:42:35;;;;;;;;;;;20.20;99.90;;;;;;5015009;28;19960;-69
2022/10/24 11:45:05;;;;;;;;;;;20.30;99.90;;;;;;5015214;28;19905;-67
2022/10/24 11:47:43;;;;;;;;;;;20.30;99.90;;;;;;5029933;28;19909;-67
2022/10/24 11:50:11;;;;;;;;;;;20.40;99.90;;;;;;5029857;28;19910;-68
2022/10/24 11:52:42;;;;;;;;;;;20.30;99.90;;;;;;5014859;28;19912;-68
2022/10/24 11:55:13;;;;;;;;;;;20.30;99.90;;;;;;5015042;28;19905;-69
2022/10/24 11:57:41;;;;;;;;;;;20.30;99.90;;;;;;5014949;28;19999;-68
2022/10/24 12:00:14;;;;;;;;;;;20.30;99.90;;;;;;5019266;28;20356;-68
2022/10/24 12:02:54;;;;;;;;;;;20.20;99.90;;;;;;5034516;28;19913;-69
2022/10/24 12:05:33;;;;;;;;;;;20.10;99.90;;;;;;5033649;28;19911;-68
2022/10/24 12:08:05;;;;;;;;;;;20.30;99.90;;;;;;5034012;28;19905;-68
2022/10/24 12:10:30;;;;;;;;;;;20.40;99.90;;;;;;5035328;28;19909;-67
2022/10/24 12:13:02;;;;;;;;;;;20.20;99.90;;;;;;5035997;28;19904;-67
2022/10/24 12:15:27;;;;;;;;;;;20.20;99.90;;;;;;5032821;28;20255;-67
2022/10/24 12:17:58;;;;;;;;;;;20.20;99.90;;;;;;5034876;28;19976;-69
2022/10/24 12:20:24;;;;;;;;;;;20.30;99.90;;;;;;5034234;28;20413;-68
2022/10/24 12:22:50;;;;;;;;;;;20.40;99.90;;;;;;5034165;28;19909;-68
2022/10/24 12:25:21;;;;;;;;;;;20.40;99.90;;;;;;5034737;28;19912;-68
2022/10/24 12:28:08;;;;;;;;;;;20.40;99.90;;;;;;5034236;28;19912;-69
2022/10/24 12:30:34;;;;;;;;;;;20.50;99.90;;;;;;5023683;28;20417;-68
2022/10/24 12:33:18;;;;;;;;;;;20.40;99.90;;;;;;5013774;28;19905;-67
2022/10/24 12:35:46;;;;;;;;;;;20.40;99.90;;;;;;5014328;28;19945;-68
2022/10/24 12:38:26;;;;;;;;;;;20.50;99.90;;;;;;5014118;28;19906;-68
2022/10/24 12:40:54;;;;;;;;;;;20.50;99.90;;;;;;5014095;28;19905;-69
2022/10/24 12:43:34;;;;;;;;;;;20.70;99.90;;;;;;5013981;28;19957;-68
2022/10/24 12:46:22;;;;;;;;;;;20.40;99.90;;;;;;5013774;28;19905;-67
2022/10/24 12:48:56;;;;;;;;;;;20.50;99.90;;;;;;5003290;28;19905;-66
2022/10/24 12:51:25;;;;;;;;;;;20.60;99.90;;;;;;5014338;28;19906;-65
2022/10/24 12:53:59;;;;;;;;;;;20.60;99.90;;;;;;5028896;28;20021;-70
2022/10/24 12:56:25;;;;;;;;;;;20.60;99.90;;;;;;5013821;28;19989;-68
2022/10/24 12:59:01;;;;;;;;;;;20.60;99.90;;;;;;5012418;28;20394;-68
2022/10/24 13:01:32;;;;;;;;;;;20.70;99.90;;;;;;5030964;28;19909;-70
2022/10/24 13:04:22;;;;;;;;;;;20.80;99.90;;;;;;5033517;28;19955;-70
2022/10/24 13:06:47;;;;;;;;;;;20.70;99.90;;;;;;5034002;28;19905;-68
2022/10/24 13:09:31;;;;;;;;;;;20.70;99.90;;;;;;5032166;28;19955;-69
2022/10/24 13:11:56;;;;;;;;;;;20.30;99.90;;;;;;5033461;28;20318;-69
2022/10/24 13:14:25;;;;;;;;;;;20.10;99.90;;;;;;5033431;28;19959;-69
2022/10/24 13:16:59;;;;;;;;;;;20.20;99.90;;;;;;5033147;28;19916;-68
2022/10/24 13:19:25;;;;;;;;;;;20.60;99.90;;;;;;5033477;28;19967;-68
2022/10/24 13:21:54;;;;;;;;;;;20.60;99.90;;;;;;5033201;28;20365;-68
2022/10/24 13:24:22;;;;;;;;;;;20.70;99.90;;;;;;5033095;28;19955;-69
2022/10/24 13:27:10;;;;;;;;;;;20.70;99.90;;;;;;5033011;28;19972;-69
2022/10/24 13:29:36;;;;;;;;;;;20.70;99.90;;;;;;5030304;28;19905;-69
2022/10/24 13:32:04;;;;;;;;;;;20.80;99.90;;;;;;5028702;28;19905;-68
2022/10/24 13:34:36;;;;;;;;;;;20.80;99.90;;;;;;5013620;28;19905;-69
2022/10/24 13:37:04;;;;;;;;;;;20.80;99.90;;;;;;5013419;28;20374;-68
2022/10/24 13:39:31;;;;;;;;;;;20.70;99.90;;;;;;5014140;28;19905;-69
2022/10/24 13:41:59;;;;;;;;;;;20.70;99.90;;;;;;5014084;28;19909;-69
2022/10/24 13:44:31;;;;;;;;;;;20.60;99.90;;;;;;5016202;28;19959;-68
2022/10/24 13:47:13;;;;;;;;;;;20.60;99.90;;;;;;5015651;28;19944;-69
2022/10/24 13:49:43;;;;;;;;;;;20.60;99.90;;;;;;5016790;28;19906;-69
2022/10/24 13:52:18;;;;;;;;;;;20.50;99.90;;;;;;5015520;28;19906;-70
2022/10/24 13:54:48;;;;;;;;;;;20.50;99.90;;;;;;5015514;28;20255;-70
2022/10/24 13:57:32;;;;;;;;;;;20.40;99.90;;;;;;5017110;28;19971;-70
2022/10/24 14:00:03;;;;;;;;;;;20.40;99.90;;;;;;5021942;28;19913;-69
2022/10/24 14:02:31;;;;;;;;;;;20.40;99.90;;;;;;5036593;28;20389;-72
2022/10/24 14:04:57;;;;;;;;;;;20.30;99.90;;;;;;5036612;28;19951;-73
2022/10/24 14:07:25;;;;;;;;;;;20.40;99.90;;;;;;5036428;28;19911;-71
2022/10/24 14:09:55;;;;;;;;;;;20.40;99.90;;;;;;5036470;28;19963;-69
2022/10/24 14:12:22;;;;;;;;;;;20.40;99.90;;;;;;5036555;28;19919;-68
2022/10/24 14:14:49;;;;;;;;;;;20.30;99.90;;;;;;5036335;28;19991;-68
2022/10/24 14:17:25;;;;;;;;;;;20.40;99.90;;;;;;5036156;28;19905;-68
2022/10/24 14:19:51;;;;;;;;;;;20.30;99.90;;;;;;5036313;28;19970;-68
2022/10/24 14:22:18;;;;;;;;;;;20.30;99.90;;;;;;5034958;28;20007;-68
2022/10/24 14:24:44;;;;;;;;;;;20.20;99.90;;;;;;5036463;28;19905;-68